Time;durP1;ratioP1;P1;durP2;ratioP2;P2;SDS_P1;SDS_P2;PMS_P1;PMS_P2;Temp;Humidity;BMP_temperature;BMP_pressure;BME280_temperature;BME280_humidity;BME280_pressure;Samples;Min_cycle;Max_cycle;Signal;HPM_P1;HPM_P2
2021/08/30 00:02:14;;;;;;;5.13;4.63;;;;;;;;;;4974422;28;20038;-70
2021/08/30 00:04:40;;;;;;;4.40;4.00;;;;;;;;;;4998763;28;20022;-70
2021/08/30 00:07:06;;;;;;;7.43;4.85;;;;;;;;;;4994281;28;20014;-70
2021/08/30 00:09:32;;;;;;;5.68;4.47;;;;;;;;;;4984289;28;20553;-69
2021/08/30 00:11:58;;;;;;;5.03;4.57;;;;;;;;;;4992427;28;20117;-70
2021/08/30 00:14:24;;;;;;;5.07;4.60;;;;;;;;;;4990885;28;20541;-70
2021/08/30 00:16:50;;;;;;;5.15;4.45;;;;;;;;;;4991563;28;20033;-69
2021/08/30 00:19:16;;;;;;;5.03;4.53;;;;;;;;;;4992297;28;20390;-70
2021/08/30 00:21:42;;;;;;;5.18;4.45;;;;;;;;;;5007594;28;20076;-70
2021/08/30 00:24:08;;;;;;;5.03;4.60;;;;;;;;;;5011474;28;20018;-70
2021/08/30 00:26:34;;;;;;;5.20;4.70;;;;;;;;;;5011709;28;20033;-70
2021/08/30 00:29:00;;;;;;;4.88;4.40;;;;;;;;;;5011505;28;20683;-72
2021/08/30 00:31:26;;;;;;;4.70;4.30;;;;;;;;;;5011669;28;20485;-70
2021/08/30 00:33:53;;;;;;;8.18;4.75;;;;;;;;;;4993878;28;20389;-70
2021/08/30 00:36:19;;;;;;;5.13;4.15;;;;;;;;;;5011589;28;20161;-70
2021/08/30 00:38:45;;;;;;;15.43;5.25;;;;;;;;;;5001980;28;20077;-70
2021/08/30 00:41:13;;;;;;;5.25;4.75;;;;;;;;;;4992086;28;20498;-70
2021/08/30 00:43:39;;;;;;;7.00;4.90;;;;;;;;;;4991715;28;20026;-70
2021/08/30 00:46:06;;;;;;;5.22;4.72;;;;;;;;;;4991894;28;20037;-69
2021/08/30 00:48:32;;;;;;;5.65;4.93;;;;;;;;;;5006157;28;20059;-70
2021/08/30 00:50:58;;;;;;;6.55;5.75;;;;;;;;;;5011348;28;20057;-70
2021/08/30 00:53:24;;;;;;;5.78;5.18;;;;;;;;;;5011185;28;20026;-70
2021/08/30 00:55:50;;;;;;;11.13;4.90;;;;;;;;;;5026517;28;20094;-69
2021/08/30 00:58:16;;;;;;;7.15;5.53;;;;;;;;;;5026487;28;20073;-70
2021/08/30 01:00:43;;;;;;;7.60;5.20;;;;;;;;;;5026388;28;20076;-70
2021/08/30 01:03:09;;;;;;;8.25;5.60;;;;;;;;;;5011116;28;20024;-70
2021/08/30 01:05:36;;;;;;;5.95;5.45;;;;;;;;;;5026539;28;20025;-70
2021/08/30 01:08:05;;;;;;;7.18;4.90;;;;;;;;;;5011235;28;20030;-69
2021/08/30 01:10:47;;;;;;;8.55;5.63;;;;;;;;;;5026361;28;20108;-70
2021/08/30 01:13:14;;;;;;;6.03;5.43;;;;;;;;;;5011474;28;20018;-70
2021/08/30 01:15:44;;;;;;;6.70;6.00;;;;;;;;;;5014779;28;20057;-70
2021/08/30 01:18:21;;;;;;;5.97;5.38;;;;;;;;;;5029941;28;20471;-70
2021/08/30 01:20:54;;;;;;;7.53;5.75;;;;;;;;;;5014398;28;20029;-70
2021/08/30 01:23:21;;;;;;;6.30;5.50;;;;;;;;;;4996908;28;20060;-69
2021/08/30 01:25:47;;;;;;;6.28;5.68;;;;;;;;;;4991464;28;20030;-70
2021/08/30 01:28:13;;;;;;;6.65;5.68;;;;;;;;;;4998722;28;20057;-70
2021/08/30 01:30:41;;;;;;;8.30;6.53;;;;;;;;;;4996962;28;20026;-70
2021/08/30 01:33:07;;;;;;;9.23;7.35;;;;;;;;;;5014132;28;20179;-69
2021/08/30 01:35:34;;;;;;;12.10;7.10;;;;;;;;;;5014183;28;20053;-69
2021/08/30 01:38:01;;;;;;;8.43;7.60;;;;;;;;;;5014236;28;20034;-69
2021/08/30 01:40:30;;;;;;;8.57;6.72;;;;;;;;;;4996560;28;20022;-70
2021/08/30 01:42:57;;;;;;;9.90;7.22;;;;;;;;;;4993017;28;20041;-70
2021/08/30 01:45:24;;;;;;;8.05;7.25;;;;;;;;;;4993253;28;20031;-70
2021/08/30 01:47:51;;;;;;;9.70;7.75;;;;;;;;;;5003026;28;20033;-70
2021/08/30 01:50:20;;;;;;;10.07;8.02;;;;;;;;;;5013909;28;20037;-70
2021/08/30 01:52:46;;;;;;;9.25;8.27;;;;;;;;;;5013787;28;20043;-70
2021/08/30 01:55:33;;;;;;;8.82;7.57;;;;;;;;;;5014280;28;20032;-70
2021/08/30 02:00:44;;;;;;;11.52;8.52;;;;;;;;;;5013759;28;20033;-70
2021/08/30 02:03:17;;;;;;;9.63;8.13;;;;;;;;;;5028787;28;20125;-71
2021/08/30 02:05:44;;;;;;;12.02;9.30;;;;;;;;;;5029393;28;20030;-70
2021/08/30 02:08:10;;;;;;;8.77;7.80;;;;;;;;;;5029296;28;20077;-71
2021/08/30 02:10:36;;;;;;;8.82;7.90;;;;;;;;;;5029083;28;20025;-71
2021/08/30 02:13:03;;;;;;;13.60;8.63;;;;;;;;;;5013377;28;20105;-70
2021/08/30 02:15:29;;;;;;;12.07;9.90;;;;;;;;;;5013902;28;20584;-70
2021/08/30 02:17:57;;;;;;;10.65;9.02;;;;;;;;;;5013769;28;20497;-70
2021/08/30 02:20:26;;;;;;;14.07;9.38;;;;;;;;;;5013365;28;20093;-70
2021/08/30 02:22:53;;;;;;;12.23;9.70;;;;;;;;;;5013438;28;20030;-70
2021/08/30 02:25:19;;;;;;;10.40;9.25;;;;;;;;;;5013188;28;20073;-69
2021/08/30 02:27:47;;;;;;;10.10;9.07;;;;;;;;;;4995524;28;20027;-71
2021/08/30 02:30:18;;;;;;;11.15;8.32;;;;;;;;;;5013196;28;20032;-69
2021/08/30 02:32:45;;;;;;;9.48;8.27;;;;;;;;;;4995760;28;20400;-69
2021/08/30 02:35:14;;;;;;;14.02;10.80;;;;;;;;;;5013972;28;20022;-70
2021/08/30 02:37:41;;;;;;;13.65;10.77;;;;;;;;;;4995791;28;20026;-70
2021/08/30 02:40:08;;;;;;;13.55;9.73;;;;;;;;;;5013305;28;20481;-69
2021/08/30 02:42:35;;;;;;;11.52;9.48;;;;;;;;;;5012982;28;20409;-70
2021/08/30 02:45:02;;;;;;;10.02;8.60;;;;;;;;;;4995617;28;20041;-69
2021/08/30 02:47:28;;;;;;;9.98;8.98;;;;;;;;;;5013112;28;20065;-70
2021/08/30 02:49:54;;;;;;;12.07;8.70;;;;;;;;;;5013073;28;20026;-69
2021/08/30 02:52:21;;;;;;;11.10;9.00;;;;;;;;;;4995566;28;20081;-70
2021/08/30 02:54:48;;;;;;;10.75;8.23;;;;;;;;;;4995204;28;20488;-69
2021/08/30 02:57:14;;;;;;;9.38;8.40;;;;;;;;;;5012951;28;20470;-69
2021/08/30 02:59:41;;;;;;;11.98;9.38;;;;;;;;;;4995167;28;20026;-71
2021/08/30 03:02:08;;;;;;;12.65;9.05;;;;;;;;;;5012713;28;20079;-70
2021/08/30 03:04:35;;;;;;;12.68;8.57;;;;;;;;;;4994952;28;20033;-70
2021/08/30 03:07:02;;;;;;;10.32;8.70;;;;;;;;;;4994972;28;20053;-70
2021/08/30 03:09:28;;;;;;;10.70;8.70;;;;;;;;;;5012720;28;20056;-69
2021/08/30 03:11:54;;;;;;;17.00;9.80;;;;;;;;;;5012684;28;20026;-69
2021/08/30 03:14:23;;;;;;;46.17;31.23;;;;;;;;;;4994767;28;20045;-70
2021/08/30 03:16:49;;;;;;;153.93;83.63;;;;;;;;;;4994913;28;20022;-69
2021/08/30 03:19:17;;;;;;;358.70;180.02;;;;;;;;;;5012556;28;20485;-70
2021/08/30 03:21:44;;;;;;;18.27;13.15;;;;;;;;;;4994944;28;20037;-69
2021/08/30 03:24:11;;;;;;;21.20;13.13;;;;;;;;;;5011347;28;20033;-69
2021/08/30 03:26:38;;;;;;;17.38;12.35;;;;;;;;;;5006165;28;20037;-69
2021/08/30 03:29:05;;;;;;;30.60;18.83;;;;;;;;;;4994684;28;20030;-70
2021/08/30 03:31:32;;;;;;;142.73;73.35;;;;;;;;;;5001147;28;20092;-69
2021/08/30 03:33:58;;;;;;;459.27;245.32;;;;;;;;;;4992513;28;20022;-70
2021/08/30 03:36:25;;;;;;;25.55;16.50;;;;;;;;;;4991891;28;20026;-70
2021/08/30 03:38:51;;;;;;;46.20;25.02;;;;;;;;;;4992513;28;20027;-70
2021/08/30 03:41:18;;;;;;;31.27;18.60;;;;;;;;;;4991148;28;20026;-69
2021/08/30 03:43:45;;;;;;;28.85;15.95;;;;;;;;;;5002465;28;20053;-70
2021/08/30 03:46:13;;;;;;;24.20;13.63;;;;;;;;;;5012105;28;20030;-69
2021/08/30 03:48:39;;;;;;;31.95;16.55;;;;;;;;;;5012021;28;20030;-70
2021/08/30 03:51:05;;;;;;;18.73;11.00;;;;;;;;;;5011945;28;20037;-70
2021/08/30 03:53:32;;;;;;;15.10;10.25;;;;;;;;;;5011833;28;20018;-70
2021/08/30 03:55:58;;;;;;;11.00;9.48;;;;;;;;;;5011949;28;20033;-69
2021/08/30 03:58:25;;;;;;;13.45;10.85;;;;;;;;;;4994245;28;20033;-70
2021/08/30 04:00:52;;;;;;;13.23;9.30;;;;;;;;;;5011789;28;20026;-70
2021/08/30 04:03:18;;;;;;;11.98;9.18;;;;;;;;;;4993839;28;20553;-70
2021/08/30 04:05:47;;;;;;;11.45;9.25;;;;;;;;;;5011811;28;20049;-70
2021/08/30 04:08:12;;;;;;;11.02;8.30;;;;;;;;;;5011825;28;20092;-71
2021/08/30 04:10:38;;;;;;;12.50;10.60;;;;;;;;;;4994188;28;20066;-70
2021/08/30 04:13:05;;;;;;;17.08;10.48;;;;;;;;;;4993913;28;20593;-70
2021/08/30 04:15:31;;;;;;;13.80;10.80;;;;;;;;;;5011710;28;20026;-70
2021/08/30 04:17:57;;;;;;;23.55;13.38;;;;;;;;;;5005771;28;20037;-70
2021/08/30 04:20:23;;;;;;;16.42;11.10;;;;;;;;;;4984461;28;20095;-70
2021/08/30 04:22:49;;;;;;;14.00;11.07;;;;;;;;;;5011232;28;20026;-69
2021/08/30 04:25:15;;;;;;;11.98;10.38;;;;;;;;;;5011975;28;20103;-70
2021/08/30 04:27:41;;;;;;;12.25;10.95;;;;;;;;;;5011348;28;20478;-70
2021/08/30 04:30:08;;;;;;;15.32;9.63;;;;;;;;;;5011608;28;20086;-70
2021/08/30 04:32:36;;;;;;;13.48;10.88;;;;;;;;;;5026466;28;20071;-70
2021/08/30 04:35:03;;;;;;;11.70;10.05;;;;;;;;;;4993903;28;20023;-70
2021/08/30 04:37:29;;;;;;;12.90;10.38;;;;;;;;;;4994077;28;20375;-70
2021/08/30 04:39:55;;;;;;;11.30;10.10;;;;;;;;;;5011666;28;20022;-70
2021/08/30 04:42:21;;;;;;;11.38;9.05;;;;;;;;;;5011193;28;20045;-70
2021/08/30 04:44:49;;;;;;;11.68;9.77;;;;;;;;;;4993916;28;20481;-70
2021/08/30 04:47:16;;;;;;;14.25;10.00;;;;;;;;;;5011584;28;20114;-71
2021/08/30 04:49:42;;;;;;;11.63;9.77;;;;;;;;;;5014369;28;20428;-72
2021/08/30 04:52:08;;;;;;;11.43;10.15;;;;;;;;;;5014155;28;20053;-71
2021/08/30 04:54:34;;;;;;;16.65;10.73;;;;;;;;;;4996017;28;20116;-71
2021/08/30 04:57:00;;;;;;;14.50;10.25;;;;;;;;;;4996227;28;20107;-71
2021/08/30 04:59:26;;;;;;;14.93;10.55;;;;;;;;;;5013539;28;20646;-72
2021/08/30 05:01:52;;;;;;;11.65;10.15;;;;;;;;;;4996166;28;20121;-70
2021/08/30 05:04:18;;;;;;;13.88;10.20;;;;;;;;;;5006521;28;20532;-70
2021/08/30 05:06:46;;;;;;;12.27;9.68;;;;;;;;;;5007702;28;20034;-70
2021/08/30 05:09:12;;;;;;;10.57;8.75;;;;;;;;;;5014563;28;20025;-71
2021/08/30 05:11:39;;;;;;;11.32;9.55;;;;;;;;;;4997158;28;20018;-69
2021/08/30 05:14:05;;;;;;;10.40;9.07;;;;;;;;;;5014350;28;20061;-70
2021/08/30 05:16:31;;;;;;;10.10;9.10;;;;;;;;;;5015020;28;20028;-70
2021/08/30 05:18:57;;;;;;;11.18;8.60;;;;;;;;;;4997050;28;20037;-70
2021/08/30 05:21:23;;;;;;;11.48;8.00;;;;;;;;;;5067734;22;20423;-67
2021/08/30 05:23:49;;;;;;;10.85;8.43;;;;;;;;;;5053172;28;20159;-68
2021/08/30 05:26:15;;;;;;;9.32;7.60;;;;;;;;;;5054000;28;20017;-68
2021/08/30 05:28:41;;;;;;;8.93;7.10;;;;;;;;;;5053998;28;20021;-68
2021/08/30 05:31:07;;;;;;;12.57;6.72;;;;;;;;;;5066906;28;20494;-68
2021/08/30 05:33:33;;;;;;;7.93;7.10;;;;;;;;;;5073770;28;20400;-67
2021/08/30 05:35:59;;;;;;;16.55;7.60;;;;;;;;;;5056053;28;20031;-68
2021/08/30 05:38:25;;;;;;;11.35;7.07;;;;;;;;;;5055947;28;20028;-69
2021/08/30 05:40:51;;;;;;;9.05;6.55;;;;;;;;;;5073751;28;20118;-69
2021/08/30 05:43:17;;;;;;;8.25;6.25;;;;;;;;;;5055277;28;20028;-68
2021/08/30 05:45:43;;;;;;;11.15;6.40;;;;;;;;;;5055769;28;20025;-69
2021/08/30 05:48:09;;;;;;;7.78;6.63;;;;;;;;;;5071720;28;20021;-69
2021/08/30 05:50:35;;;;;;;7.93;6.32;;;;;;;;;;5071795;28;20460;-69
2021/08/30 05:53:01;;;;;;;7.70;6.00;;;;;;;;;;5054925;28;20059;-68
2021/08/30 05:55:27;;;;;;;8.27;6.38;;;;;;;;;;5073880;28;20078;-68
2021/08/30 05:57:53;;;;;;;8.43;6.55;;;;;;;;;;5060128;28;20033;-69
2021/08/30 06:00:19;;;;;;;7.60;6.80;;;;;;;;;;5052321;28;20033;-68
2021/08/30 06:02:45;;;;;;;9.32;7.10;;;;;;;;;;5037585;28;20470;-68
2021/08/30 06:05:11;;;;;;;8.07;6.10;;;;;;;;;;5053363;28;20039;-68
2021/08/30 06:07:39;;;;;;;6.80;6.13;;;;;;;;;;5065763;28;20095;-69
2021/08/30 06:10:05;;;;;;;6.25;5.65;;;;;;;;;;5073342;28;20012;-69
2021/08/30 06:12:31;;;;;;;7.55;5.53;;;;;;;;;;5072758;28;20053;-71
2021/08/30 06:14:57;;;;;;;9.10;6.53;;;;;;;;;;5054629;28;20032;-70
2021/08/30 06:17:23;;;;;;;11.18;5.63;;;;;;;;;;5072978;28;20020;-70
2021/08/30 06:19:49;;;;;;;12.32;6.78;;;;;;;;;;5051445;28;20408;-71
2021/08/30 06:22:15;;;;;;;7.10;6.22;;;;;;;;;;5072902;28;20021;-71
2021/08/30 06:24:46;;;;;;;7.70;4.35;;;;;;;;;;5055287;28;20074;-71
2021/08/30 06:27:12;;;;;;;7.95;4.90;;;;;;;;;;5040102;28;20373;-71
2021/08/30 06:29:38;;;;;;;33.72;21.30;;;;;;;;;;5034942;28;20029;-69
2021/08/30 06:32:04;;;;;;;5.57;3.85;;;;;;;;;;5053132;28;20021;-69
2021/08/30 06:34:30;;;;;;;5.30;3.45;;;;;;;;;;5052685;28;20025;-70
2021/08/30 06:36:56;;;;;;;6.10;4.85;;;;;;;;;;5052779;28;20021;-68
2021/08/30 06:39:22;;;;;;;6.20;4.97;;;;;;;;;;5067646;28;20031;-68
2021/08/30 06:41:48;;;;;;;17.48;10.55;;;;;;;;;;5072523;28;20100;-69
2021/08/30 06:44:14;;;;;;;9.73;5.43;;;;;;;;;;5072334;28;20032;-69
2021/08/30 06:46:40;;;;;;;7.15;4.78;;;;;;;;;;5072560;28;20056;-69
2021/08/30 06:49:06;;;;;;;71.78;45.72;;;;;;;;;;5054420;28;20026;-69
2021/08/30 06:51:32;;;;;;;31.83;20.08;;;;;;;;;;5072501;28;20506;-69
2021/08/30 06:53:58;;;;;;;17.17;9.75;;;;;;;;;;5071793;28;20102;-67
2021/08/30 06:56:24;;;;;;;21.70;14.32;;;;;;;;;;5054170;28;20021;-68
2021/08/30 06:58:50;;;;;;;58.90;37.30;;;;;;;;;;5072075;28;20072;-68
2021/08/30 07:01:15;;;;;;;7.30;5.78;;;;;;;;;;5072271;28;20036;-69
2021/08/30 07:03:41;;;;;;;11.15;8.10;;;;;;;;;;5072229;28;20052;-69
2021/08/30 07:06:07;;;;;;;28.08;17.73;;;;;;;;;;5054336;28;20511;-69
2021/08/30 07:08:33;;;;;;;7.00;5.88;;;;;;;;;;5072291;28;20028;-69
2021/08/30 07:10:59;;;;;;;5.60;4.70;;;;;;;;;;5071121;28;20031;-69
2021/08/30 07:13:25;;;;;;;8.75;5.70;;;;;;;;;;5071771;28;20078;-68
2021/08/30 07:15:51;;;;;;;12.38;7.10;;;;;;;;;;5072105;28;20030;-68
2021/08/30 07:18:18;;;;;;;15.18;7.57;;;;;;;;;;5054029;28;20024;-68
2021/08/30 07:20:44;;;;;;;6.85;5.20;;;;;;;;;;5071627;28;20495;-68
2021/08/30 07:23:11;;;;;;;21.30;14.20;;;;;;;;;;5071748;28;20071;-69
2021/08/30 07:25:37;;;;;;;5.05;3.83;;;;;;;;;;5053896;28;20060;-69
2021/08/30 07:28:03;;;;;;;6.15;4.82;;;;;;;;;;5053812;28;20479;-69
2021/08/30 07:30:29;;;;;;;5.53;4.47;;;;;;;;;;5071815;28;20025;-68
2021/08/30 07:32:55;;;;;;;5.68;4.40;;;;;;;;;;5071575;28;20471;-68
2021/08/30 07:35:21;;;;;;;6.22;4.30;;;;;;;;;;5053778;28;20093;-69
2021/08/30 07:37:48;;;;;;;6.72;4.55;;;;;;;;;;5071779;28;20029;-69
2021/08/30 07:40:14;;;;;;;6.30;4.72;;;;;;;;;;5053592;28;20028;-69
2021/08/30 07:42:40;;;;;;;11.88;5.38;;;;;;;;;;5071365;28;20502;-69
2021/08/30 07:45:06;;;;;;;7.53;5.57;;;;;;;;;;5071522;28;20028;-69
2021/08/30 07:47:32;;;;;;;8.30;6.05;;;;;;;;;;5053747;28;20031;-69
2021/08/30 07:49:58;;;;;;;11.38;6.78;;;;;;;;;;5071496;28;20476;-69
2021/08/30 07:52:24;;;;;;;10.10;7.00;;;;;;;;;;5071583;28;20407;-69
2021/08/30 07:54:51;;;;;;;5.93;5.18;;;;;;;;;;5071313;28;20028;-69
2021/08/30 07:57:17;;;;;;;14.85;9.23;;;;;;;;;;5072057;28;20021;-69
2021/08/30 07:59:43;;;;;;;10.18;7.90;;;;;;;;;;5071367;28;20056;-69
2021/08/30 08:02:09;;;;;;;11.32;6.93;;;;;;;;;;5071681;28;20499;-69
2021/08/30 08:04:35;;;;;;;11.02;8.15;;;;;;;;;;5071198;28;20020;-69
2021/08/30 08:07:01;;;;;;;13.20;8.65;;;;;;;;;;5071351;28;20498;-69
2021/08/30 08:09:27;;;;;;;11.93;7.53;;;;;;;;;;5071080;28;20051;-69
2021/08/30 08:11:53;;;;;;;13.63;10.40;;;;;;;;;;5071409;28;20024;-69
2021/08/30 08:14:19;;;;;;;11.45;6.88;;;;;;;;;;5071091;28;20032;-69
2021/08/30 08:16:45;;;;;;;12.10;9.65;;;;;;;;;;5071534;28;20025;-69
2021/08/30 08:19:14;;;;;;;12.25;10.18;;;;;;;;;;5071221;28;20111;-69
2021/08/30 08:21:40;;;;;;;31.15;22.10;;;;;;;;;;5052991;28;20055;-69
2021/08/30 08:24:06;;;;;;;9.52;7.70;;;;;;;;;;5074523;28;20024;-69
2021/08/30 08:26:32;;;;;;;16.08;11.13;;;;;;;;;;5075257;28;20028;-70
2021/08/30 08:28:58;;;;;;;24.27;17.02;;;;;;;;;;5057273;28;20123;-68
2021/08/30 08:31:25;;;;;;;7.55;4.68;;;;;;;;;;5075175;28;20095;-69
2021/08/30 08:33:51;;;;;;;5.18;4.68;;;;;;;;;;5056953;28;20027;-67
2021/08/30 08:36:17;;;;;;;9.45;4.90;;;;;;;;;;5075152;28;20021;-68
2021/08/30 08:38:43;;;;;;;10.00;6.05;;;;;;;;;;5057048;28;20437;-68
2021/08/30 08:41:09;;;;;;;4.60;4.03;;;;;;;;;;5074907;28;20028;-68
2021/08/30 08:43:35;;;;;;;7.80;4.88;;;;;;;;;;5056747;28;20033;-68
2021/08/30 08:46:02;;;;;;;5.07;4.18;;;;;;;;;;5074845;28;20127;-68
2021/08/30 08:48:28;;;;;;;5.13;4.18;;;;;;;;;;5074567;28;20514;-69
2021/08/30 08:50:54;;;;;;;8.02;3.85;;;;;;;;;;5074663;28;20025;-68
2021/08/30 08:53:20;;;;;;;7.28;6.03;;;;;;;;;;5074562;28;20494;-68
2021/08/30 08:55:46;;;;;;;8.70;6.82;;;;;;;;;;5057007;28;20078;-68
2021/08/30 08:58:17;;;;;;;14.45;9.70;;;;;;;;;;5056860;28;20028;-68
2021/08/30 09:00:43;;;;;;;6.90;5.63;;;;;;;;;;5074634;28;20522;-68
2021/08/30 09:03:17;;;;;;;27.65;19.45;;;;;;;;;;5074424;28;20037;-67
2021/08/30 09:05:43;;;;;;;11.20;6.93;;;;;;;;;;5074478;28;20429;-68
2021/08/30 09:08:27;;;;;;;5.43;4.40;;;;;;;;;;5074329;28;20081;-68
2021/08/30 09:10:53;;;;;;;3.42;3.13;;;;;;;;;;5074417;28;20107;-68
2021/08/30 09:13:25;;;;;;;8.38;5.22;;;;;;;;;;5056308;28;20028;-68
2021/08/30 09:15:51;;;;;;;2.70;2.50;;;;;;;;;;5069341;28;20060;-68
2021/08/30 09:18:17;;;;;;;2.80;2.45;;;;;;;;;;5074268;28;20048;-68
2021/08/30 09:20:44;;;;;;;5.32;3.40;;;;;;;;;;5074126;28;20041;-68
2021/08/30 09:23:15;;;;;;;2.70;2.50;;;;;;;;;;5074185;28;20017;-68
2021/08/30 09:25:41;;;;;;;2.47;2.28;;;;;;;;;;5071672;28;20028;-68
2021/08/30 09:28:07;;;;;;;4.18;2.53;;;;;;;;;;5053976;28;20032;-70
2021/08/30 09:30:33;;;;;;;2.45;2.20;;;;;;;;;;5054219;28;20425;-72
2021/08/30 09:33:00;;;;;;;2.20;2.00;;;;;;;;;;5057029;28;20021;-70
2021/08/30 09:35:26;;;;;;;3.03;2.22;;;;;;;;;;5042129;28;20532;-71
2021/08/30 09:37:52;;;;;;;7.07;6.07;;;;;;;;;;5053809;28;20048;-70
2021/08/30 09:40:20;;;;;;;19.38;14.70;;;;;;;;;;5073265;28;20484;-70
2021/08/30 09:42:51;;;;;;;18.58;13.80;;;;;;;;;;5055382;28;20446;-70
2021/08/30 09:45:20;;;;;;;28.20;19.58;;;;;;;;;;5073324;28;20016;-71
2021/08/30 09:47:59;;;;;;;20.30;13.98;;;;;;;;;;5073422;28;20476;-71
2021/08/30 09:50:42;;;;;;;2.47;1.95;;;;;;;;;;5071397;28;20028;-70
2021/08/30 09:53:08;;;;;;;18.63;13.90;;;;;;;;;;5051899;28;20021;-70
2021/08/30 09:55:37;;;;;;;15.77;13.18;;;;;;;;;;5052157;28;20017;-71
2021/08/30 09:58:05;;;;;;;16.88;11.55;;;;;;;;;;5052409;28;20025;-71
2021/08/30 10:00:32;;;;;;;37.25;27.85;;;;;;;;;;5073053;28;20025;-69
2021/08/30 10:02:59;;;;;;;80.97;60.88;;;;;;;;;;5072876;28;20025;-70
2021/08/30 10:05:26;;;;;;;110.15;80.03;;;;;;;;;;5055232;28;20024;-70
2021/08/30 10:07:56;;;;;;;73.45;53.72;;;;;;;;;;5074141;28;20478;-71
2021/08/30 10:10:23;;;;;;;14.63;11.32;;;;;;;;;;5073143;28;20432;-70
2021/08/30 10:12:50;;;;;;;18.30;13.43;;;;;;;;;;5072820;28;20111;-69
2021/08/30 10:15:18;;;;;;;10.88;9.07;;;;;;;;;;5072946;28;20025;-71
2021/08/30 10:17:47;;;;;;;62.25;46.97;;;;;;;;;;5055106;28;20479;-72
2021/08/30 10:20:18;;;;;;;9.07;7.85;;;;;;;;;;5067532;28;20036;-71
2021/08/30 10:22:59;;;;;;;34.22;24.60;;;;;;;;;;5072641;28;20074;-71
2021/08/30 10:25:26;;;;;;;24.55;20.13;;;;;;;;;;5060017;28;20036;-70
2021/08/30 10:27:55;;;;;;;30.52;22.75;;;;;;;;;;5052875;28;20120;-70
2021/08/30 10:30:23;;;;;;;30.55;22.40;;;;;;;;;;5052670;28;20071;-69
2021/08/30 10:32:52;;;;;;;41.85;32.15;;;;;;;;;;5051787;28;20419;-69
2021/08/30 10:35:19;;;;;;;12.70;8.63;;;;;;;;;;5064607;28;20491;-70
2021/08/30 10:37:50;;;;;;;56.70;43.88;;;;;;;;;;5050911;28;20025;-70
2021/08/30 10:40:16;;;;;;;33.97;27.53;;;;;;;;;;5034734;28;20025;-69
2021/08/30 10:42:43;;;;;;;5.88;5.18;;;;;;;;;;5052387;28;20492;-70
2021/08/30 10:45:10;;;;;;;22.08;17.52;;;;;;;;;;5052714;28;20049;-70
2021/08/30 10:47:37;;;;;;;6.22;4.90;;;;;;;;;;5052404;28;20450;-67
2021/08/30 10:50:04;;;;;;;3.75;3.22;;;;;;;;;;5034381;28;20024;-67
2021/08/30 10:52:39;;;;;;;3.67;3.38;;;;;;;;;;5052181;28;20029;-67
2021/08/30 10:55:15;;;;;;;61.58;47.75;;;;;;;;;;5052456;28;20025;-67
2021/08/30 10:57:41;;;;;;;48.95;36.85;;;;;;;;;;5052413;28;20507;-67
2021/08/30 11:00:09;;;;;;;43.85;32.13;;;;;;;;;;5034607;28;20041;-67
2021/08/30 11:02:40;;;;;;;3.70;3.30;;;;;;;;;;5052057;28;20048;-66
2021/08/30 11:05:07;;;;;;;40.75;31.10;;;;;;;;;;5052278;28;20516;-67
2021/08/30 11:07:33;;;;;;;50.58;39.13;;;;;;;;;;5052518;28;20395;-67
2021/08/30 11:10:00;;;;;;;7.65;5.45;;;;;;;;;;5052445;28;20029;-66
2021/08/30 11:12:26;;;;;;;2.78;2.55;;;;;;;;;;5052731;28;20025;-66
2021/08/30 11:14:56;;;;;;;34.00;25.95;;;;;;;;;;5052759;28;20033;-66
2021/08/30 11:17:36;;;;;;;40.95;30.58;;;;;;;;;;5070876;28;20545;-66
2021/08/30 11:22:51;;;;;;;57.92;44.05;;;;;;;;;;5028920;28;20065;-72
2021/08/30 11:25:17;;;;;;;17.67;15.18;;;;;;;;;;5031617;28;20113;-74
2021/08/30 11:27:43;;;;;;;14.10;11.63;;;;;;;;;;5032048;28;20049;-72
2021/08/30 11:30:12;;;;;;;41.78;32.70;;;;;;;;;;5014072;28;20076;-76
2021/08/30 11:32:40;;;;;;;6.10;4.22;;;;;;;;;;5031697;28;20373;-77
2021/08/30 11:35:07;;;;;;;18.63;14.23;;;;;;;;;;5031801;28;20045;-77
2021/08/30 11:37:34;;;;;;;24.02;18.88;;;;;;;;;;5026825;28;20056;-75
2021/08/30 11:40:01;;;;;;;3.28;2.45;;;;;;;;;;5010912;28;20422;-75
2021/08/30 11:42:30;;;;;;;38.47;29.42;;;;;;;;;;5017683;28;20060;-75
2021/08/30 11:44:57;;;;;;;11.95;9.07;;;;;;;;;;5031528;28;20017;-76
2021/08/30 11:47:23;;;;;;;27.23;18.92;;;;;;;;;;5031269;28;20049;-72
2021/08/30 11:49:57;;;;;;;22.15;16.75;;;;;;;;;;5013251;28;20025;-72
2021/08/30 11:52:24;;;;;;;59.75;45.85;;;;;;;;;;5030903;28;20036;-76
2021/08/30 11:54:59;;;;;;;44.50;33.50;;;;;;;;;;5023716;28;20030;-76
2021/08/30 11:57:25;;;;;;;28.30;21.02;;;;;;;;;;5011196;28;20050;-74
2021/08/30 11:59:52;;;;;;;39.53;27.58;;;;;;;;;;5010275;28;20033;-75
2021/08/30 12:02:18;;;;;;;20.45;13.27;;;;;;;;;;5010489;28;20033;-74
2021/08/30 12:04:45;;;;;;;22.45;13.93;;;;;;;;;;5010542;28;20025;-75
2021/08/30 12:07:15;;;;;;;59.58;39.38;;;;;;;;;;5010550;28;20029;-75
2021/08/30 12:09:41;;;;;;;59.42;39.15;;;;;;;;;;5010313;28;20026;-75
2021/08/30 12:12:15;;;;;;;26.17;16.45;;;;;;;;;;5007284;28;20029;-74
2021/08/30 12:14:42;;;;;;;39.33;24.73;;;;;;;;;;5004710;28;20037;-72
2021/08/30 12:17:07;;;;;;;91.32;58.88;;;;;;;;;;5007813;28;20030;-73
2021/08/30 12:19:33;;;;;;;7.88;5.53;;;;;;;;;;5010793;28;20048;-75
2021/08/30 12:21:59;;;;;;;15.82;10.38;;;;;;;;;;5012360;28;20148;-74
2021/08/30 12:24:25;;;;;;;34.67;22.70;;;;;;;;;;5029678;28;20041;-74
2021/08/30 12:26:52;;;;;;;80.93;52.22;;;;;;;;;;5030512;28;20021;-75
2021/08/30 12:29:20;;;;;;;5.88;4.53;;;;;;;;;;5013202;28;20025;-72
2021/08/30 12:31:53;;;;;;;68.80;42.67;;;;;;;;;;5019258;28;20397;-71
2021/08/30 12:34:22;;;;;;;52.22;33.67;;;;;;;;;;5010916;28;20037;-73
2021/08/30 12:36:49;;;;;;;237.77;151.80;;;;;;;;;;5017818;28;20018;-76
2021/08/30 12:39:15;;;;;;;23.25;15.40;;;;;;;;;;5031905;28;20142;-76
2021/08/30 12:41:41;;;;;;;92.30;58.45;;;;;;;;;;5014663;28;20037;-72
2021/08/30 12:44:07;;;;;;;110.57;70.63;;;;;;;;;;5029818;28;20392;-76
2021/08/30 12:46:33;;;;;;;95.88;59.10;;;;;;;;;;5028192;28;20040;-71
2021/08/30 12:49:00;;;;;;;171.98;109.13;;;;;;;;;;5023324;28;20022;-70
2021/08/30 12:51:26;;;;;;;374.73;257.98;;;;;;;;;;5011148;28;20029;-70
2021/08/30 12:53:53;;;;;;;55.22;33.45;;;;;;;;;;5010764;28;20026;-70
2021/08/30 12:56:19;;;;;;;39.10;24.88;;;;;;;;;;5011735;28;20032;-70
2021/08/30 12:58:45;;;;;;;66.00;41.42;;;;;;;;;;5011599;28;20469;-70
2021/08/30 13:01:11;;;;;;;28.85;18.92;;;;;;;;;;5011186;28;20033;-68
2021/08/30 13:03:38;;;;;;;25.25;16.35;;;;;;;;;;5010263;28;20066;-70
2021/08/30 13:06:04;;;;;;;26.65;16.80;;;;;;;;;;5011279;28;20092;-69
2021/08/30 13:08:30;;;;;;;14.05;9.00;;;;;;;;;;5011899;28;20026;-69
2021/08/30 13:10:56;;;;;;;9.57;5.57;;;;;;;;;;5013331;28;20026;-72
2021/08/30 13:13:22;;;;;;;20.88;13.02;;;;;;;;;;5013791;28;20067;-71
2021/08/30 13:15:49;;;;;;;5.07;3.33;;;;;;;;;;5013354;28;20049;-71
2021/08/30 13:18:15;;;;;;;19.40;11.48;;;;;;;;;;5014513;28;20083;-71
2021/08/30 13:20:42;;;;;;;3.17;2.55;;;;;;;;;;5014227;28;20026;-71
2021/08/30 13:23:12;;;;;;;8.55;5.53;;;;;;;;;;5013705;28;20052;-71
2021/08/30 13:25:38;;;;;;;6.57;4.78;;;;;;;;;;5030027;28;20026;-71
2021/08/30 13:28:05;;;;;;;7.30;4.75;;;;;;;;;;5034156;28;20088;-71
2021/08/30 13:30:31;;;;;;;17.67;12.07;;;;;;;;;;5033801;28;20013;-71
2021/08/30 13:32:57;;;;;;;10.10;6.72;;;;;;;;;;5015494;28;20489;-71
2021/08/30 13:35:23;;;;;;;22.85;13.75;;;;;;;;;;5034008;28;20500;-71
2021/08/30 13:37:53;;;;;;;5.55;4.28;;;;;;;;;;5033875;28;20028;-71
2021/08/30 13:40:19;;;;;;;4.90;3.33;;;;;;;;;;5033906;28;20017;-71
2021/08/30 13:42:45;;;;;;;3.88;3.03;;;;;;;;;;5033090;28;20024;-70
2021/08/30 13:45:12;;;;;;;3.92;3.08;;;;;;;;;;5015479;28;20030;-68
2021/08/30 13:47:38;;;;;;;24.77;16.35;;;;;;;;;;5033794;28;20374;-71
2021/08/30 13:50:05;;;;;;;15.90;10.15;;;;;;;;;;5015827;28;20060;-71
2021/08/30 13:52:31;;;;;;;4.15;2.63;;;;;;;;;;5015172;28;20033;-70
2021/08/30 13:54:57;;;;;;;3.22;2.30;;;;;;;;;;5033711;28;20100;-70
2021/08/30 13:57:23;;;;;;;16.98;8.85;;;;;;;;;;5033528;28;20397;-70
2021/08/30 13:59:49;;;;;;;2.33;2.13;;;;;;;;;;5033551;28;20033;-70
2021/08/30 14:02:15;;;;;;;9.82;6.40;;;;;;;;;;5032956;28;20091;-68
2021/08/30 14:04:41;;;;;;;4.47;3.78;;;;;;;;;;5033035;28;20029;-70
2021/08/30 14:07:09;;;;;;;10.65;4.85;;;;;;;;;;5033314;28;20105;-70
2021/08/30 14:09:36;;;;;;;24.15;14.55;;;;;;;;;;5015650;28;20025;-70
2021/08/30 14:12:02;;;;;;;23.42;14.13;;;;;;;;;;5033175;28;20120;-69
2021/08/30 14:14:28;;;;;;;10.50;5.35;;;;;;;;;;5032515;28;20032;-70
2021/08/30 14:16:54;;;;;;;4.68;3.15;;;;;;;;;;5033294;28;20052;-70
2021/08/30 14:19:20;;;;;;;10.65;7.38;;;;;;;;;;5033254;28;20132;-69
2021/08/30 14:21:47;;;;;;;6.70;4.43;;;;;;;;;;5032540;28;20552;-69
2021/08/30 14:24:12;;;;;;;3.22;1.60;;;;;;;;;;5032399;28;20397;-70
2021/08/30 14:26:39;;;;;;;2.28;2.03;;;;;;;;;;5033104;28;20022;-70
2021/08/30 14:29:04;;;;;;;9.27;5.95;;;;;;;;;;5033044;28;20033;-69
2021/08/30 14:31:31;;;;;;;10.25;5.35;;;;;;;;;;5032993;28;20056;-70
2021/08/30 14:33:57;;;;;;;4.60;3.60;;;;;;;;;;5032304;28;20060;-70
2021/08/30 14:36:24;;;;;;;2.97;2.42;;;;;;;;;;5015139;28;20029;-70